createdAt,value
2023-05-04T00:00:08.545Z,11.65
2023-05-04T00:01:08.163Z,11.60
2023-05-04T00:02:08.325Z,11.68
2023-05-04T00:03:08.151Z,11.59
2023-05-04T00:04:08.223Z,11.63
2023-05-04T00:05:08.151Z,11.74
2023-05-04T00:06:07.928Z,11.60
2023-05-04T00:07:07.957Z,11.53
2023-05-04T00:08:08.017Z,11.53
2023-05-04T00:09:07.974Z,11.49
2023-05-04T00:10:08.216Z,11.56
2023-05-04T00:11:07.708Z,11.48
2023-05-04T00:12:07.800Z,11.43
2023-05-04T00:13:07.709Z,11.40
2023-05-04T00:14:07.759Z,11.43
2023-05-04T00:15:07.533Z,11.43
2023-05-04T00:16:09.221Z,11.40
2023-05-04T00:17:07.441Z,11.38
2023-05-04T00:18:07.929Z,11.43
2023-05-04T00:19:07.351Z,11.43
2023-05-04T00:20:07.655Z,11.41
2023-05-04T00:21:07.285Z,11.38
2023-05-04T00:22:07.215Z,11.40
2023-05-04T00:23:07.303Z,11.35
2023-05-04T00:24:07.267Z,11.33
2023-05-04T00:25:07.085Z,11.31
2023-05-04T00:26:07.277Z,11.25
2023-05-04T00:27:06.997Z,11.26
2023-05-04T00:28:06.944Z,11.27
2023-05-04T00:29:07.109Z,11.25
2023-05-04T00:30:06.961Z,11.23
2023-05-04T00:31:06.924Z,11.23
2023-05-04T00:32:06.804Z,11.25
2023-05-04T00:33:06.768Z,11.25
2023-05-04T00:34:06.979Z,11.18
2023-05-04T00:35:06.741Z,11.25
2023-05-04T00:36:06.592Z,11.23
2023-05-04T00:37:06.748Z,11.18
2023-05-04T00:38:06.502Z,11.10
2023-05-04T00:39:06.454Z,11.13
2023-05-04T00:40:06.944Z,11.10
2023-05-04T00:41:06.364Z,11.16
2023-05-04T00:42:06.584Z,11.08
2023-05-04T00:43:06.423Z,11.13
2023-05-04T00:44:06.395Z,11.07
2023-05-04T00:45:06.185Z,11.08
2023-05-04T00:46:06.197Z,11.08
2023-05-04T00:47:06.138Z,11.04
2023-05-04T00:48:06.288Z,11.10
2023-05-04T00:49:06.018Z,11.10
2023-05-04T00:50:06.170Z,11.13
2023-05-04T00:51:05.917Z,11.07
2023-05-04T00:52:06.075Z,10.97
2023-05-04T00:53:05.969Z,10.97
2023-05-04T00:54:05.917Z,11.00
2023-05-04T00:55:05.908Z,10.89
2023-05-04T00:56:05.689Z,10.90
2023-05-04T00:57:05.649Z,10.90
2023-05-04T00:58:05.689Z,10.86
2023-05-04T00:59:05.557Z,10.82
2023-05-04T01:00:05.938Z,10.89
2023-05-04T01:01:05.543Z,10.87
2023-05-04T01:02:05.912Z,10.84
2023-05-04T01:03:05.613Z,10.87
2023-05-04T01:04:05.718Z,10.90
2023-05-04T01:05:05.303Z,10.89
2023-05-04T01:06:05.329Z,10.89
2023-05-04T01:07:05.341Z,10.87
2023-05-04T01:08:05.255Z,10.86
2023-05-04T01:09:05.355Z,10.84
2023-05-04T01:10:05.340Z,10.89
2023-05-04T01:11:05.160Z,10.83
2023-05-04T01:12:04.984Z,10.80
2023-05-04T01:13:04.958Z,10.84
2023-05-04T01:14:05.181Z,10.77
2023-05-04T01:15:04.853Z,10.79
2023-05-04T01:16:04.986Z,10.75
2023-05-04T01:17:04.803Z,10.76
2023-05-04T01:18:04.794Z,10.80
2023-05-04T01:19:04.654Z,10.82
2023-05-04T01:20:05.297Z,10.83
2023-05-04T01:21:04.563Z,10.82
2023-05-04T01:22:04.628Z,10.68
2023-05-04T01:23:04.480Z,10.64
2023-05-04T01:24:04.434Z,10.62
2023-05-04T01:25:04.408Z,10.51
2023-05-04T01:26:04.445Z,10.53
2023-05-04T01:27:04.293Z,10.59
2023-05-04T01:28:04.476Z,10.49
2023-05-04T01:29:04.204Z,10.53
2023-05-04T01:30:04.362Z,10.53
2023-05-04T01:31:04.499Z,10.51
2023-05-04T01:32:04.074Z,10.49
2023-05-04T01:33:04.360Z,10.51
2023-05-04T01:34:04.000Z,10.58
2023-05-04T01:35:03.949Z,10.59
2023-05-04T01:36:04.182Z,10.51
2023-05-04T01:37:03.913Z,10.57
2023-05-04T01:38:03.807Z,10.55
2023-05-04T01:39:03.931Z,10.53
2023-05-04T01:40:03.834Z,10.46
2023-05-04T01:41:03.687Z,10.39
2023-05-04T01:42:03.749Z,10.39
2023-05-04T01:43:04.817Z,10.41
2023-05-04T01:44:03.779Z,10.27
2023-05-04T01:45:03.472Z,10.30
2023-05-04T01:46:03.607Z,10.27
2023-05-04T01:47:03.384Z,10.27
2023-05-04T01:48:03.650Z,10.31
2023-05-04T01:49:03.294Z,10.30
2023-05-04T01:50:03.563Z,10.34
2023-05-04T01:51:03.205Z,10.30
2023-05-04T01:52:03.153Z,10.36
2023-05-04T01:53:03.111Z,10.23
2023-05-04T01:54:03.427Z,10.18
2023-05-04T01:55:03.031Z,10.20
2023-05-04T01:56:03.235Z,10.06
2023-05-04T01:57:02.924Z,10.09
2023-05-04T01:58:02.886Z,10.03
2023-05-04T01:59:04.066Z,10.06
2023-05-04T02:00:03.199Z,10.05
2023-05-04T02:01:02.855Z,10.05
2023-05-04T02:02:02.769Z,10.07
2023-05-04T02:03:02.872Z,9.95
2023-05-04T02:04:02.790Z,9.95
2023-05-04T02:05:02.683Z,9.97
2023-05-04T02:06:02.743Z,9.91
2023-05-04T02:07:02.691Z,9.88
2023-05-04T02:08:02.433Z,10.02
2023-05-04T02:09:02.386Z,9.99
2023-05-04T02:10:02.811Z,9.97
2023-05-04T02:11:02.286Z,9.99
2023-05-04T02:12:02.525Z,10.03
2023-05-04T02:13:02.248Z,10.07
2023-05-04T02:14:02.360Z,10.06
2023-05-04T02:15:02.109Z,10.03
2023-05-04T02:16:02.189Z,9.92
2023-05-04T02:17:02.019Z,10.03
2023-05-04T02:18:02.599Z,10.03
2023-05-04T02:19:01.940Z,10.03
2023-05-04T02:20:01.973Z,10.02
2023-05-04T02:21:01.841Z,10.02
2023-05-04T02:22:01.999Z,9.99
2023-05-04T02:23:01.756Z,9.99
2023-05-04T02:24:01.798Z,9.91
2023-05-04T02:25:01.851Z,9.95
2023-05-04T02:26:01.622Z,9.95
2023-05-04T02:27:01.822Z,9.94
2023-05-04T02:28:01.519Z,9.97
2023-05-04T02:29:01.639Z,10.00
2023-05-04T02:30:01.493Z,9.97
2023-05-04T02:31:01.643Z,9.92
2023-05-04T02:32:01.400Z,9.95
2023-05-04T02:33:01.548Z,9.87
2023-05-04T02:34:01.253Z,9.95
2023-05-04T02:35:01.474Z,9.95
2023-05-04T02:36:01.167Z,9.88
2023-05-04T02:37:01.486Z,9.90
2023-05-04T02:38:01.060Z,9.94
2023-05-04T02:39:01.311Z,9.99
2023-05-04T02:40:00.972Z,9.97
2023-05-04T02:41:01.112Z,9.91
2023-05-04T02:42:00.887Z,9.91
2023-05-04T02:43:00.838Z,9.94
2023-05-04T02:44:00.986Z,10.03
2023-05-04T02:45:00.926Z,9.90
2023-05-04T02:46:00.750Z,9.88
2023-05-04T02:47:00.764Z,9.94
2023-05-04T02:48:00.674Z,9.99
2023-05-04T02:49:00.567Z,10.02
2023-05-04T02:50:00.539Z,10.00
2023-05-04T02:51:00.974Z,9.90
2023-05-04T02:52:00.435Z,10.05
2023-05-04T02:53:00.595Z,10.02
2023-05-04T02:54:00.390Z,10.09
2023-05-04T02:55:00.388Z,9.95
2023-05-04T02:56:00.249Z,10.00
2023-05-04T02:57:00.402Z,10.06
2023-05-04T02:58:00.163Z,10.10
2023-05-04T02:59:00.222Z,10.12
2023-05-04T03:00:00.445Z,10.13
2023-05-04T03:01:00.057Z,9.95
2023-05-04T03:02:00.236Z,10.09
2023-05-04T03:03:00.189Z,10.05
2023-05-04T03:04:00.093Z,10.00
2023-05-04T03:04:59.881Z,9.99
2023-05-04T03:05:59.801Z,9.99
2023-05-04T03:06:59.882Z,9.92
2023-05-04T03:07:59.708Z,9.88
2023-05-04T03:08:59.878Z,9.90
2023-05-04T03:09:59.610Z,9.88
2023-05-04T03:10:59.948Z,10.05
2023-05-04T03:11:59.518Z,9.97
2023-05-04T03:12:59.718Z,9.99
2023-05-04T03:13:59.459Z,9.92
2023-05-04T03:14:59.518Z,9.97
2023-05-04T03:15:59.356Z,9.90
2023-05-04T03:16:59.312Z,9.94
2023-05-04T03:17:59.314Z,9.81
2023-05-04T03:18:59.337Z,9.84
2023-05-04T03:19:59.156Z,9.82
2023-05-04T03:20:59.355Z,9.77
2023-05-04T03:21:59.067Z,9.74
2023-05-04T03:22:59.377Z,9.70
2023-05-04T03:23:58.981Z,9.67
2023-05-04T03:24:59.184Z,9.69
2023-05-04T03:25:58.888Z,9.77
2023-05-04T03:26:58.985Z,9.55
2023-05-04T03:27:58.991Z,9.56
2023-05-04T03:28:58.766Z,9.55
2023-05-04T03:29:58.802Z,9.63
2023-05-04T03:30:58.655Z,9.52
2023-05-04T03:31:58.851Z,9.54
2023-05-04T03:32:58.639Z,9.44
2023-05-04T03:33:58.518Z,9.39
2023-05-04T03:34:59.060Z,9.51
2023-05-04T03:35:58.432Z,9.45
2023-05-04T03:36:58.651Z,9.45
2023-05-04T03:37:58.353Z,9.54
2023-05-04T03:38:58.292Z,9.54
2023-05-04T03:39:58.245Z,9.58
2023-05-04T03:40:58.476Z,9.51
2023-05-04T03:41:58.155Z,9.56
2023-05-04T03:42:58.303Z,9.56
2023-05-04T03:43:58.069Z,9.56
2023-05-04T03:44:58.027Z,9.54
2023-05-04T03:45:58.024Z,9.56
2023-05-04T03:46:58.328Z,9.54
2023-05-04T03:47:57.916Z,9.54
2023-05-04T03:48:58.151Z,9.54
2023-05-04T03:49:57.793Z,9.55
2023-05-04T03:50:57.744Z,9.51
2023-05-04T03:51:57.944Z,9.49
2023-05-04T03:52:57.759Z,9.49
2023-05-04T03:53:57.756Z,9.49
2023-05-04T03:54:57.559Z,9.45
2023-05-04T03:55:57.514Z,9.49
2023-05-04T03:56:57.472Z,9.51
2023-05-04T03:57:57.576Z,9.45
2023-05-04T03:58:57.654Z,9.45
2023-05-04T03:59:57.943Z,9.47
2023-05-04T04:00:57.277Z,9.44
2023-05-04T04:01:57.324Z,9.36
2023-05-04T04:02:57.656Z,9.36
2023-05-04T04:03:57.264Z,9.36
2023-05-04T04:04:57.222Z,9.30
2023-05-04T04:05:57.061Z,9.33
2023-05-04T04:06:57.236Z,9.30
2023-05-04T04:07:56.966Z,9.24
2023-05-04T04:08:57.045Z,9.22
2023-05-04T04:09:56.871Z,9.30
2023-05-04T04:10:57.056Z,9.29
2023-05-04T04:11:56.777Z,9.18
2023-05-04T04:12:56.769Z,9.12
2023-05-04T04:13:56.879Z,9.12
2023-05-04T04:14:56.947Z,9.21
2023-05-04T04:15:56.909Z,9.22
2023-05-04T04:16:56.548Z,9.21
2023-05-04T04:17:56.754Z,9.24
2023-05-04T04:18:56.466Z,9.29
2023-05-04T04:19:56.712Z,9.24
2023-05-04T04:20:56.388Z,9.36
2023-05-04T04:21:56.527Z,9.36
2023-05-04T04:22:56.587Z,9.27
2023-05-04T04:23:56.242Z,9.31
2023-05-04T04:24:56.184Z,9.30
2023-05-04T04:25:56.356Z,9.29
2023-05-04T04:26:56.110Z,9.16
2023-05-04T04:27:56.158Z,9.18
2023-05-04T04:28:56.013Z,9.21
2023-05-04T04:29:55.957Z,9.16
2023-05-04T04:30:56.037Z,9.05
2023-05-04T04:31:56.156Z,9.16
2023-05-04T04:32:55.849Z,9.08
2023-05-04T04:33:56.008Z,9.12
2023-05-04T04:34:55.868Z,8.96
2023-05-04T04:35:55.678Z,9.09
2023-05-04T04:36:55.833Z,9.13
2023-05-04T04:37:55.589Z,9.19
2023-05-04T04:38:55.846Z,9.16
2023-05-04T04:39:55.508Z,9.16
2023-05-04T04:40:55.518Z,9.22
2023-05-04T04:41:55.417Z,9.18
2023-05-04T04:42:55.665Z,9.21
2023-05-04T04:43:55.324Z,9.24
2023-05-04T04:44:55.468Z,9.22
2023-05-04T04:45:55.229Z,9.30
2023-05-04T04:46:55.419Z,9.22
2023-05-04T04:47:55.147Z,9.26
2023-05-04T04:48:55.290Z,9.34
2023-05-04T04:49:55.040Z,9.27
2023-05-04T04:50:55.314Z,9.31
2023-05-04T04:51:54.945Z,9.33
2023-05-04T04:52:54.903Z,9.33
2023-05-04T04:53:55.123Z,9.31
2023-05-04T04:54:54.805Z,9.39
2023-05-04T04:55:55.139Z,9.33
2023-05-04T04:56:54.725Z,9.45
2023-05-04T04:57:54.675Z,9.42
2023-05-04T04:58:54.620Z,9.45
2023-05-04T04:59:54.763Z,9.55
2023-05-04T05:00:54.585Z,9.59
2023-05-04T05:01:54.787Z,9.56
2023-05-04T05:02:54.711Z,9.62
2023-05-04T05:03:54.389Z,9.54
2023-05-04T05:04:54.664Z,9.56
2023-05-04T05:05:54.303Z,9.56
2023-05-04T05:06:54.406Z,9.55
2023-05-04T05:07:54.209Z,9.67
2023-05-04T05:08:54.183Z,9.74
2023-05-04T05:09:54.117Z,9.77
2023-05-04T05:10:54.223Z,9.84
2023-05-04T05:11:54.031Z,9.84
2023-05-04T05:12:54.473Z,9.88
2023-05-04T05:13:53.942Z,9.87
2023-05-04T05:14:53.933Z,9.90
2023-05-04T05:15:54.061Z,9.90
2023-05-04T05:16:53.807Z,9.91
2023-05-04T05:17:54.174Z,9.90
2023-05-04T05:18:53.739Z,9.95
2023-05-04T05:19:53.886Z,10.03
2023-05-04T05:20:53.616Z,9.95
2023-05-04T05:21:53.690Z,10.00
2023-05-04T05:22:53.536Z,10.03
2023-05-04T05:23:53.707Z,10.03
2023-05-04T05:24:53.765Z,10.02
2023-05-04T05:25:53.386Z,10.07
2023-05-04T05:26:53.346Z,10.06
2023-05-04T05:27:53.530Z,10.10
2023-05-04T05:28:53.252Z,10.17
2023-05-04T05:29:53.229Z,10.25
2023-05-04T05:30:54.415Z,10.30
2023-05-04T05:31:53.115Z,10.31
2023-05-04T05:32:53.407Z,10.34
2023-05-04T05:33:53.029Z,10.39
2023-05-04T05:34:53.385Z,10.48
2023-05-04T05:35:52.945Z,10.43
2023-05-04T05:36:53.190Z,10.59
2023-05-04T05:37:52.844Z,10.49
2023-05-04T05:38:52.998Z,10.65
2023-05-04T05:39:52.755Z,10.59
2023-05-04T05:40:52.745Z,10.68
2023-05-04T05:41:52.713Z,10.86
2023-05-04T05:42:52.616Z,10.80
2023-05-04T05:43:53.750Z,10.84
2023-05-04T05:44:52.523Z,10.90
2023-05-04T05:45:52.586Z,10.89
2023-05-04T05:46:52.606Z,10.90
2023-05-04T05:47:52.548Z,11.01
2023-05-04T05:48:52.560Z,11.00
2023-05-04T05:49:52.348Z,11.02
2023-05-04T05:50:52.368Z,11.01
2023-05-04T05:51:52.209Z,11.10
2023-05-04T05:52:52.391Z,11.08
2023-05-04T05:53:52.238Z,11.07
2023-05-04T05:54:52.076Z,11.08
2023-05-04T05:55:52.211Z,11.18
2023-05-04T05:56:51.980Z,11.22
2023-05-04T05:57:52.013Z,11.20
2023-05-04T05:58:51.949Z,11.23
2023-05-04T05:59:53.105Z,11.22
2023-05-04T06:03:48.809Z,11.31
2023-05-04T06:04:48.317Z,11.26
2023-05-04T06:05:48.233Z,11.22
2023-05-04T06:06:48.204Z,11.26
2023-05-04T06:07:48.198Z,11.23
2023-05-04T06:08:48.176Z,11.26
2023-05-04T06:09:48.234Z,11.25
2023-05-04T06:10:48.046Z,11.31
2023-05-04T06:11:47.971Z,11.38
2023-05-04T06:12:48.095Z,11.45
2023-05-04T06:13:47.868Z,11.48
2023-05-04T06:14:48.033Z,11.51
2023-05-04T06:15:47.823Z,11.56
2023-05-04T06:16:48.060Z,11.60
2023-05-04T06:17:47.719Z,11.62
2023-05-04T06:18:47.864Z,11.65
2023-05-04T06:19:50.250Z,11.71
2023-05-04T06:20:47.679Z,11.83
2023-05-04T06:21:47.511Z,11.91
2023-05-04T06:22:47.465Z,11.96
2023-05-04T06:23:47.421Z,12.07
2023-05-04T06:24:47.495Z,12.12
2023-05-04T06:25:47.544Z,12.12
2023-05-04T06:26:47.516Z,12.25
2023-05-04T06:27:47.245Z,12.29
2023-05-04T06:28:47.192Z,12.36
2023-05-04T06:29:47.147Z,12.48
2023-05-04T06:30:47.137Z,12.57
2023-05-04T06:31:48.380Z,12.58
2023-05-04T06:32:47.215Z,12.69
2023-05-04T06:33:46.973Z,12.78
2023-05-04T06:34:46.915Z,12.73
2023-05-04T06:35:46.978Z,12.80
2023-05-04T06:36:46.852Z,12.91
2023-05-04T06:37:46.986Z,12.98
2023-05-04T06:38:46.746Z,12.98
2023-05-04T06:39:46.839Z,13.05
2023-05-04T06:40:46.858Z,13.09
2023-05-04T06:41:46.807Z,13.05
2023-05-04T06:42:46.594Z,13.23
2023-05-04T06:43:46.616Z,13.20
2023-05-04T06:44:46.480Z,13.28
2023-05-04T06:45:46.501Z,13.28
2023-05-04T06:46:46.388Z,13.36
2023-05-04T06:47:46.740Z,13.36
2023-05-04T06:48:46.299Z,13.49
2023-05-04T06:49:46.464Z,13.50
2023-05-04T06:50:46.241Z,13.58
2023-05-04T06:51:46.167Z,13.78
2023-05-04T06:52:46.123Z,13.70
2023-05-04T06:53:46.278Z,13.82
2023-05-04T06:54:46.036Z,13.83
2023-05-04T06:55:46.096Z,13.82
2023-05-04T06:56:46.166Z,13.95
2023-05-04T06:57:46.107Z,13.97
2023-05-04T06:58:45.867Z,14.07
2023-05-04T06:59:45.910Z,14.08
2023-05-04T07:00:45.805Z,14.23
2023-05-04T07:01:45.974Z,14.33
2023-05-04T07:02:45.752Z,14.37
2023-05-04T07:03:45.842Z,14.48
2023-05-04T07:04:45.753Z,14.52
2023-05-04T07:05:45.552Z,14.61
2023-05-04T07:06:45.554Z,14.66
2023-05-04T07:07:45.471Z,14.71
2023-05-04T07:08:45.458Z,14.77
2023-05-04T07:09:45.580Z,14.78
2023-05-04T07:10:45.428Z,14.89
2023-05-04T07:11:45.387Z,14.89
2023-05-04T07:12:45.297Z,14.92
2023-05-04T07:13:45.408Z,15.02
2023-05-04T07:14:45.158Z,15.07
2023-05-04T07:15:45.212Z,15.17
2023-05-04T07:16:45.166Z,15.17
2023-05-04T07:17:46.315Z,15.23
2023-05-04T07:18:53.785Z,15.22
2023-05-04T07:19:45.034Z,15.36
2023-05-04T07:20:44.912Z,15.33
2023-05-04T07:21:45.052Z,15.36
2023-05-04T07:22:44.813Z,15.50
2023-05-04T07:23:45.187Z,15.50
2023-05-04T07:24:45.934Z,15.54
2023-05-04T07:25:44.755Z,15.59
2023-05-04T07:26:44.633Z,15.67
2023-05-04T07:27:44.895Z,15.80
2023-05-04T07:28:44.546Z,15.80
2023-05-04T07:29:44.694Z,15.85
2023-05-04T07:30:44.465Z,15.84
2023-05-04T07:31:44.511Z,15.92
2023-05-04T07:32:44.413Z,15.99
2023-05-04T07:33:45.483Z,16.02
2023-05-04T07:34:46.242Z,15.96
2023-05-04T07:35:44.644Z,15.98
2023-05-04T07:36:44.202Z,15.99
2023-05-04T07:37:44.164Z,16.08
2023-05-04T07:38:46.900Z,16.10
2023-05-04T07:39:44.202Z,16.25
2023-05-04T07:40:46.107Z,16.24
2023-05-04T07:41:44.020Z,16.36
2023-05-04T07:42:44.588Z,16.44
2023-05-04T07:43:43.905Z,16.47
2023-05-04T07:44:44.027Z,16.41
2023-05-04T07:45:44.213Z,16.57
2023-05-04T07:46:45.122Z,16.57
2023-05-04T07:47:43.777Z,16.58
2023-05-04T07:48:43.860Z,16.66
2023-05-04T07:49:43.712Z,16.66
2023-05-04T07:50:44.757Z,16.66
2023-05-04T07:51:43.799Z,16.72
2023-05-04T07:52:45.735Z,16.76
2023-05-04T07:53:43.486Z,16.83
2023-05-04T07:54:43.442Z,16.91
2023-05-04T07:55:43.762Z,16.98
2023-05-04T07:56:43.348Z,17.04
2023-05-04T07:57:43.365Z,17.12
2023-05-04T07:58:43.266Z,17.17
2023-05-04T07:59:43.228Z,17.20
2023-05-04T08:00:43.189Z,17.32
2023-05-04T08:01:44.209Z,17.42
2023-05-04T08:02:43.669Z,17.53
2023-05-04T08:03:45.263Z,17.65
2023-05-04T08:04:43.046Z,17.72
2023-05-04T08:05:42.990Z,18.03
2023-05-04T08:06:43.234Z,18.43
2023-05-04T08:07:43.041Z,18.96
2023-05-04T08:08:42.842Z,19.64
2023-05-04T08:09:43.044Z,20.30
2023-05-04T08:10:42.756Z,20.74
2023-05-04T08:11:42.756Z,21.38
2023-05-04T08:12:43.940Z,21.81
2023-05-04T08:13:42.634Z,22.30
2023-05-04T08:14:44.721Z,22.91
2023-05-04T08:15:42.550Z,23.44
2023-05-04T08:16:42.707Z,23.95
2023-05-04T08:17:42.815Z,24.28
2023-05-04T08:18:43.542Z,24.56
2023-05-04T08:19:42.399Z,25.00
2023-05-04T08:20:44.728Z,25.18
2023-05-04T08:21:42.323Z,25.51
2023-05-04T08:22:43.346Z,25.89
2023-05-04T08:23:42.226Z,26.08
2023-05-04T08:24:42.349Z,26.34
2023-05-04T08:25:42.168Z,26.61
2023-05-04T08:26:47.155Z,26.88
2023-05-04T08:27:42.082Z,27.16
2023-05-04T08:28:42.032Z,27.00
2023-05-04T08:29:41.990Z,27.15
2023-05-04T08:30:43.204Z,27.30
2023-05-04T08:31:41.976Z,27.57
2023-05-04T08:32:42.231Z,27.88
2023-05-04T08:33:41.836Z,28.15
2023-05-04T08:34:41.813Z,28.12
2023-05-04T08:35:41.759Z,28.35
2023-05-04T08:36:43.864Z,28.49
2023-05-04T08:37:41.687Z,28.47
2023-05-04T08:38:42.259Z,28.71
2023-05-04T08:39:42.309Z,28.89
2023-05-04T08:40:41.567Z,29.05
2023-05-04T08:41:41.653Z,29.22
2023-05-04T08:42:41.490Z,29.44
2023-05-04T08:43:41.677Z,29.35
2023-05-04T08:44:42.746Z,29.52
2023-05-04T08:45:41.469Z,29.64
2023-05-04T08:46:41.330Z,29.69
2023-05-04T08:47:42.524Z,29.95
2023-05-04T08:48:41.263Z,30.17
2023-05-04T08:49:41.303Z,30.38
2023-05-04T08:50:41.358Z,30.43
2023-05-04T08:51:41.157Z,30.59
2023-05-04T08:52:41.112Z,30.62
2023-05-04T08:53:41.330Z,30.76
2023-05-04T08:54:41.034Z,30.80
2023-05-04T08:55:42.163Z,30.93
2023-05-04T08:56:41.232Z,31.22
2023-05-04T08:57:40.926Z,31.41
2023-05-04T08:58:40.955Z,31.41
2023-05-04T08:59:40.842Z,31.54
2023-05-04T09:00:41.010Z,31.60
2023-05-04T09:01:40.860Z,31.18
2023-05-04T09:02:40.880Z,30.59
2023-05-04T09:03:40.809Z,30.80
2023-05-04T09:04:40.805Z,30.96
2023-05-04T09:05:40.628Z,31.10
2023-05-04T09:06:40.816Z,31.17
2023-05-04T09:07:40.564Z,31.37
2023-05-04T09:08:40.512Z,31.69
2023-05-04T09:09:40.482Z,31.87
2023-05-04T09:10:41.067Z,31.85
2023-05-04T09:11:40.409Z,32.08
2023-05-04T09:12:40.667Z,32.30
2023-05-04T09:13:40.344Z,32.34
2023-05-04T09:14:40.309Z,32.41
2023-05-04T09:15:40.806Z,32.51
2023-05-04T09:16:40.254Z,32.76
2023-05-04T09:17:50.987Z,32.97
2023-05-04T09:18:40.329Z,33.23
2023-05-04T09:19:41.108Z,33.51
2023-05-04T09:20:40.125Z,33.65
2023-05-04T09:21:41.533Z,33.66
2023-05-04T09:22:40.077Z,33.61
2023-05-04T09:23:40.135Z,33.58
2023-05-04T09:24:39.973Z,33.63
2023-05-04T09:25:39.942Z,33.04
2023-05-04T09:26:40.195Z,32.68
2023-05-04T09:27:40.141Z,32.76
2023-05-04T09:28:39.869Z,32.78
2023-05-04T09:29:41.211Z,32.82
2023-05-04T09:30:39.775Z,33.05
2023-05-04T09:31:39.789Z,33.29
2023-05-04T09:32:40.010Z,33.63
2023-05-04T09:33:39.684Z,33.79
2023-05-04T09:34:41.834Z,34.03
2023-05-04T09:35:39.651Z,34.29
2023-05-04T09:36:39.795Z,34.59
2023-05-04T09:37:39.858Z,34.79
2023-05-04T09:38:39.608Z,35.15
2023-05-04T09:39:39.521Z,35.52
2023-05-04T09:40:39.827Z,35.66
2023-05-04T09:41:39.447Z,35.79
2023-05-04T09:42:39.401Z,35.86
2023-05-04T09:43:39.382Z,36.08
2023-05-04T09:44:40.469Z,36.13
2023-05-04T09:45:39.320Z,36.32
2023-05-04T09:46:39.500Z,36.22
2023-05-04T09:47:39.322Z,36.50
2023-05-04T09:48:39.225Z,36.72
2023-05-04T09:49:39.207Z,36.88
2023-05-04T09:50:39.284Z,37.06
2023-05-04T09:51:39.160Z,37.04
2023-05-04T09:52:39.511Z,37.25
2023-05-04T09:53:39.094Z,37.44
2023-05-04T09:54:39.047Z,37.58
2023-05-04T09:55:39.115Z,37.68
2023-05-04T09:56:38.996Z,37.83
2023-05-04T09:57:39.135Z,37.97
2023-05-04T09:58:41.252Z,38.12
2023-05-04T09:59:39.150Z,38.07
2023-05-04T10:00:38.880Z,38.04
2023-05-04T10:01:39.060Z,38.09
2023-05-04T10:02:38.924Z,38.23
2023-05-04T10:03:38.972Z,38.34
2023-05-04T10:04:38.796Z,38.31
2023-05-04T10:05:38.806Z,38.28
2023-05-04T10:06:38.720Z,38.22
2023-05-04T10:07:59.910Z,38.38
2023-05-04T10:08:38.652Z,38.56
2023-05-04T10:09:38.631Z,38.35
2023-05-04T10:10:39.028Z,37.97
2023-05-04T10:11:38.571Z,38.22
2023-05-04T10:12:38.672Z,38.48
2023-05-04T10:13:38.535Z,38.69
2023-05-04T10:14:38.646Z,38.91
2023-05-04T10:15:38.465Z,39.15
2023-05-04T10:16:39.653Z,39.23
2023-05-04T10:17:38.412Z,39.14
2023-05-04T10:18:39.593Z,39.11
2023-05-04T10:19:38.625Z,39.15
2023-05-04T10:20:38.585Z,39.22
2023-05-04T10:21:38.294Z,39.08
2023-05-04T10:22:39.416Z,39.26
2023-05-04T10:23:38.245Z,39.27
2023-05-04T10:24:38.413Z,39.37
2023-05-04T10:25:38.213Z,39.48
2023-05-04T10:26:38.424Z,39.32
2023-05-04T10:27:38.135Z,39.30
2023-05-04T10:28:39.265Z,39.39
2023-05-04T10:29:38.294Z,39.12
2023-05-04T10:30:38.246Z,39.08
2023-05-04T10:31:38.126Z,39.17
2023-05-04T10:32:38.305Z,39.25
2023-05-04T10:33:37.972Z,39.05
2023-05-04T10:34:39.146Z,39.07
2023-05-04T10:35:37.927Z,39.39
2023-05-04T10:36:38.140Z,39.66
2023-05-04T10:37:40.199Z,39.97
2023-05-04T10:38:38.920Z,40.10
2023-05-04T10:39:37.848Z,40.16
2023-05-04T10:40:37.833Z,40.29
2023-05-04T10:41:37.754Z,40.42
2023-05-04T10:42:40.180Z,40.28
2023-05-04T10:43:37.705Z,40.29
2023-05-04T10:44:37.942Z,40.40
2023-05-04T10:45:37.730Z,40.28
2023-05-04T10:46:37.629Z,40.32
2023-05-04T10:47:37.703Z,40.20
2023-05-04T10:48:38.996Z,40.13
2023-05-04T10:49:37.544Z,40.12
2023-05-04T10:50:38.603Z,40.12
2023-05-04T10:51:48.611Z,40.13
2023-05-04T10:52:37.556Z,40.16
2023-05-04T10:53:38.628Z,40.08
2023-05-04T10:54:37.420Z,40.19
2023-05-04T10:55:37.616Z,39.98
2023-05-04T10:56:40.953Z,39.85
2023-05-04T10:57:38.446Z,39.83
2023-05-04T10:58:37.304Z,40.02
2023-05-04T10:59:37.455Z,39.94
2023-05-04T11:00:37.247Z,40.05
2023-05-04T11:01:37.609Z,40.17
2023-05-04T11:02:37.358Z,40.46
2023-05-04T11:03:37.320Z,40.16
2023-05-04T11:04:37.155Z,40.07
2023-05-04T11:05:38.301Z,40.16
2023-05-04T11:06:38.938Z,40.14
2023-05-04T11:07:38.355Z,39.83
2023-05-04T11:08:37.040Z,39.79
2023-05-04T11:09:37.010Z,39.73
2023-05-04T11:10:36.992Z,39.41
2023-05-04T11:11:37.118Z,39.49
2023-05-04T11:12:37.012Z,39.80
2023-05-04T11:13:37.138Z,39.95
2023-05-04T11:14:36.902Z,40.02
2023-05-04T11:15:38.027Z,40.55
2023-05-04T11:16:37.999Z,40.80
2023-05-04T11:17:36.835Z,40.96
2023-05-04T11:18:39.010Z,41.22
2023-05-04T11:19:36.755Z,41.23
2023-05-04T11:20:36.733Z,41.07
2023-05-04T11:21:36.830Z,40.99
2023-05-04T11:22:36.795Z,40.86
2023-05-04T11:23:36.763Z,41.11
2023-05-04T11:24:36.808Z,41.51
2023-05-04T11:25:36.609Z,41.33
2023-05-04T11:26:36.590Z,41.34
2023-05-04T11:27:36.552Z,41.26
2023-05-04T11:28:37.658Z,41.39
2023-05-04T11:29:36.698Z,41.45
2023-05-04T11:30:36.645Z,41.74
2023-05-04T11:31:36.493Z,41.90
2023-05-04T11:32:36.462Z,41.91
2023-05-04T11:33:36.665Z,42.00
2023-05-04T11:34:36.376Z,41.90
2023-05-04T11:35:36.684Z,41.93
2023-05-04T11:36:36.333Z,42.10
2023-05-04T11:37:36.320Z,42.09
2023-05-04T11:38:36.303Z,42.32
2023-05-04T11:39:36.518Z,42.36
2023-05-04T11:40:36.252Z,42.39
2023-05-04T11:41:36.320Z,42.58
2023-05-04T11:42:36.176Z,42.82
2023-05-04T11:43:36.388Z,42.44
2023-05-04T11:44:36.333Z,42.52
2023-05-04T11:45:36.145Z,42.52
2023-05-04T11:46:36.404Z,42.56
2023-05-04T11:47:36.061Z,42.71
2023-05-04T11:48:36.168Z,42.71
2023-05-04T11:49:36.002Z,42.53
2023-05-04T11:50:36.377Z,42.81
2023-05-04T11:51:36.007Z,42.96
2023-05-04T11:52:36.196Z,42.89
2023-05-04T11:53:35.905Z,42.87
2023-05-04T11:54:35.880Z,42.94
2023-05-04T11:55:35.863Z,43.00
2023-05-04T11:56:36.032Z,42.93
2023-05-04T11:57:36.074Z,43.19
2023-05-04T11:58:36.050Z,43.16
2023-05-04T11:59:35.757Z,43.35
2023-05-04T12:00:35.728Z,43.38
2023-05-04T12:01:35.847Z,43.34
2023-05-04T12:02:35.797Z,43.24
2023-05-04T12:03:47.940Z,43.34
2023-05-04T12:04:35.637Z,43.35
2023-05-04T12:05:35.936Z,43.05
2023-05-04T12:06:35.902Z,43.00
2023-05-04T12:07:35.558Z,42.94
2023-05-04T12:08:35.694Z,42.94
2023-05-04T12:09:35.587Z,43.03
2023-05-04T12:10:35.711Z,43.25
2023-05-04T12:11:35.478Z,43.49
2023-05-04T12:12:35.453Z,43.61
2023-05-04T12:13:35.529Z,43.91
2023-05-04T12:14:35.386Z,44.21
2023-05-04T12:15:35.784Z,44.25
2023-05-04T12:16:35.355Z,44.28
2023-05-04T12:17:35.319Z,44.00
2023-05-04T12:18:35.291Z,43.65
2023-05-04T12:19:35.569Z,43.54
2023-05-04T12:20:35.267Z,43.56
2023-05-04T12:21:35.382Z,43.57
2023-05-04T12:22:35.217Z,43.75
2023-05-04T12:23:35.170Z,43.99
2023-05-04T12:24:35.455Z,43.95
2023-05-04T12:25:39.128Z,43.97
2023-05-04T12:26:35.107Z,43.76
2023-05-04T12:27:35.221Z,43.76
2023-05-04T12:28:35.066Z,43.61
2023-05-04T12:29:35.046Z,43.18
2023-05-04T12:30:35.038Z,43.34
2023-05-04T12:31:35.477Z,43.39
2023-05-04T12:32:35.054Z,43.36
2023-05-04T12:33:35.061Z,43.36
2023-05-04T12:34:34.925Z,43.15
2023-05-04T12:35:35.083Z,43.22
2023-05-04T12:36:34.861Z,43.16
2023-05-04T12:37:35.112Z,43.41
2023-05-04T12:38:34.958Z,43.57
2023-05-04T12:39:35.109Z,43.91
2023-05-04T12:40:34.915Z,43.94
2023-05-04T12:41:34.753Z,43.95
2023-05-04T12:42:34.920Z,44.11
2023-05-04T12:43:34.693Z,44.34
2023-05-04T12:44:34.942Z,44.47
2023-05-04T12:45:34.642Z,44.40
2023-05-04T12:46:34.919Z,44.45
2023-05-04T12:47:34.678Z,44.47
2023-05-04T12:48:34.775Z,44.47
2023-05-04T12:49:34.553Z,44.57
2023-05-04T12:50:34.777Z,44.60
2023-05-04T12:51:34.840Z,44.64
2023-05-04T12:52:34.509Z,44.57
2023-05-04T12:53:34.611Z,44.41
2023-05-04T12:54:34.449Z,44.38
2023-05-04T12:55:34.606Z,44.44
2023-05-04T12:56:34.403Z,44.52
2023-05-04T12:57:35.081Z,44.55
2023-05-04T12:58:34.338Z,44.68
2023-05-04T12:59:34.635Z,44.84
2023-05-04T13:00:34.297Z,44.59